sensor_id;sensor_type;location;lat;lon;timestamp;temperature;humidity
23713;DHT22;12035;49.978;8.298;2023-12-07T00:01:54;6.10;80.90
23713;DHT22;12035;49.978;8.298;2023-12-07T00:06:51;6.00;81.00
23713;DHT22;12035;49.978;8.298;2023-12-07T00:11:48;6.00;81.20
23713;DHT22;12035;49.978;8.298;2023-12-07T00:16:46;6.00;81.10
23713;DHT22;12035;49.978;8.298;2023-12-07T00:21:44;5.90;81.00
23713;DHT22;12035;49.978;8.298;2023-12-07T00:26:41;5.90;81.00
23713;DHT22;12035;49.978;8.298;2023-12-07T00:31:38;5.90;81.00
23713;DHT22;12035;49.978;8.298;2023-12-07T00:36:36;5.80;81.10
23713;DHT22;12035;49.978;8.298;2023-12-07T00:41:34;5.80;81.10
23713;DHT22;12035;49.978;8.298;2023-12-07T00:46:31;5.80;81.10
23713;DHT22;12035;49.978;8.298;2023-12-07T00:51:28;5.80;81.20
23713;DHT22;12035;49.978;8.298;2023-12-07T00:56:26;5.70;81.20
23713;DHT22;12035;49.978;8.298;2023-12-07T01:01:23;5.70;81.30
23713;DHT22;12035;49.978;8.298;2023-12-07T01:06:21;5.70;81.30
23713;DHT22;12035;49.978;8.298;2023-12-07T01:11:18;5.70;81.30
23713;DHT22;12035;49.978;8.298;2023-12-07T01:16:16;5.60;81.30
23713;DHT22;12035;49.978;8.298;2023-12-07T01:21:13;5.60;81.30
23713;DHT22;12035;49.978;8.298;2023-12-07T01:26:10;5.60;81.40
23713;DHT22;12035;49.978;8.298;2023-12-07T01:31:09;5.60;81.30
23713;DHT22;12035;49.978;8.298;2023-12-07T01:36:08;5.60;81.30
23713;DHT22;12035;49.978;8.298;2023-12-07T01:41:05;5.60;81.30
23713;DHT22;12035;49.978;8.298;2023-12-07T01:46:03;5.50;81.20
23713;DHT22;12035;49.978;8.298;2023-12-07T01:51:01;5.50;81.20
23713;DHT22;12035;49.978;8.298;2023-12-07T01:56:00;5.40;82.00
23713;DHT22;12035;49.978;8.298;2023-12-07T02:00:57;5.40;81.20
23713;DHT22;12035;49.978;8.298;2023-12-07T02:05:55;5.30;81.20
23713;DHT22;12035;49.978;8.298;2023-12-07T02:10:52;5.30;81.30
23713;DHT22;12035;49.978;8.298;2023-12-07T02:15:52;5.30;81.50
23713;DHT22;12035;49.978;8.298;2023-12-07T02:20:54;5.20;81.40
23713;DHT22;12035;49.978;8.298;2023-12-07T02:25:54;5.20;81.30
23713;DHT22;12035;49.978;8.298;2023-12-07T02:30:56;5.10;81.30
23713;DHT22;12035;49.978;8.298;2023-12-07T02:35:53;5.10;81.50
23713;DHT22;12035;49.978;8.298;2023-12-07T02:40:50;5.00;82.30
23713;DHT22;12035;49.978;8.298;2023-12-07T02:45:48;5.00;81.50
23713;DHT22;12035;49.978;8.298;2023-12-07T02:50:46;5.00;81.50
23713;DHT22;12035;49.978;8.298;2023-12-07T02:55:43;5.00;81.50
23713;DHT22;12035;49.978;8.298;2023-12-07T03:00:40;5.00;81.40
23713;DHT22;12035;49.978;8.298;2023-12-07T03:05:37;4.90;81.20
23713;DHT22;12035;49.978;8.298;2023-12-07T03:10:36;4.90;81.00
23713;DHT22;12035;49.978;8.298;2023-12-07T03:15:33;4.90;81.10
23713;DHT22;12035;49.978;8.298;2023-12-07T03:20:30;4.80;81.10
23713;DHT22;12035;49.978;8.298;2023-12-07T03:25:27;4.80;81.30
23713;DHT22;12035;49.978;8.298;2023-12-07T03:30:25;4.70;81.30
23713;DHT22;12035;49.978;8.298;2023-12-07T03:35:22;4.70;81.50
23713;DHT22;12035;49.978;8.298;2023-12-07T03:40:20;4.70;81.40
23713;DHT22;12035;49.978;8.298;2023-12-07T03:45:17;4.70;81.40
23713;DHT22;12035;49.978;8.298;2023-12-07T03:50:15;4.60;81.40
23713;DHT22;12035;49.978;8.298;2023-12-07T03:55:12;4.60;81.70
23713;DHT22;12035;49.978;8.298;2023-12-07T04:00:12;4.60;81.70
23713;DHT22;12035;49.978;8.298;2023-12-07T04:05:10;4.60;81.80
23713;DHT22;12035;49.978;8.298;2023-12-07T04:10:10;4.60;81.80
23713;DHT22;12035;49.978;8.298;2023-12-07T04:15:08;4.60;81.90
23713;DHT22;12035;49.978;8.298;2023-12-07T04:20:06;4.60;81.90
23713;DHT22;12035;49.978;8.298;2023-12-07T04:25:06;4.50;81.90
23713;DHT22;12035;49.978;8.298;2023-12-07T04:30:06;4.50;82.10
23713;DHT22;12035;49.978;8.298;2023-12-07T04:35:04;4.50;82.10
23713;DHT22;12035;49.978;8.298;2023-12-07T04:40:02;4.50;82.10
23713;DHT22;12035;49.978;8.298;2023-12-07T04:45:00;4.50;81.90
23713;DHT22;12035;49.978;8.298;2023-12-07T04:49:59;4.50;81.90
23713;DHT22;12035;49.978;8.298;2023-12-07T04:54:56;4.50;81.70
23713;DHT22;12035;49.978;8.298;2023-12-07T04:59:53;4.50;82.60
23713;DHT22;12035;49.978;8.298;2023-12-07T05:04:50;4.40;82.40
23713;DHT22;12035;49.978;8.298;2023-12-07T05:09:49;4.40;81.70
23713;DHT22;12035;49.978;8.298;2023-12-07T05:14:47;4.40;81.60
23713;DHT22;12035;49.978;8.298;2023-12-07T05:19:44;4.40;81.70
23713;DHT22;12035;49.978;8.298;2023-12-07T05:24:41;4.30;81.60
23713;DHT22;12035;49.978;8.298;2023-12-07T05:29:39;4.30;81.70
23713;DHT22;12035;49.978;8.298;2023-12-07T05:34:36;4.30;81.80
23713;DHT22;12035;49.978;8.298;2023-12-07T05:39:33;4.30;81.80
23713;DHT22;12035;49.978;8.298;2023-12-07T05:44:31;4.30;82.00
23713;DHT22;12035;49.978;8.298;2023-12-07T05:49:29;4.30;82.00
23713;DHT22;12035;49.978;8.298;2023-12-07T05:54:26;4.30;82.10
23713;DHT22;12035;49.978;8.298;2023-12-07T05:59:23;4.30;82.10
23713;DHT22;12035;49.978;8.298;2023-12-07T06:04:20;4.30;82.10
23713;DHT22;12035;49.978;8.298;2023-12-07T06:09:18;4.30;82.00
23713;DHT22;12035;49.978;8.298;2023-12-07T06:14:16;4.30;82.00
23713;DHT22;12035;49.978;8.298;2023-12-07T06:19:12;4.30;82.00
23713;DHT22;12035;49.978;8.298;2023-12-07T06:24:10;4.30;82.00
23713;DHT22;12035;49.978;8.298;2023-12-07T06:29:08;4.30;82.00
23713;DHT22;12035;49.978;8.298;2023-12-07T06:34:05;4.30;81.90
23713;DHT22;12035;49.978;8.298;2023-12-07T06:39:02;4.30;81.80
23713;DHT22;12035;49.978;8.298;2023-12-07T06:43:59;4.30;81.80
23713;DHT22;12035;49.978;8.298;2023-12-07T06:48:58;4.30;81.80
23713;DHT22;12035;49.978;8.298;2023-12-07T06:53:55;4.20;81.70
23713;DHT22;12035;49.978;8.298;2023-12-07T06:58:55;4.20;81.70
23713;DHT22;12035;49.978;8.298;2023-12-07T07:03:52;4.20;81.50
23713;DHT22;12035;49.978;8.298;2023-12-07T07:08:50;4.20;81.60
23713;DHT22;12035;49.978;8.298;2023-12-07T07:13:47;4.10;81.70
23713;DHT22;12035;49.978;8.298;2023-12-07T07:18:44;4.10;81.80
23713;DHT22;12035;49.978;8.298;2023-12-07T07:23:41;4.10;81.90
23713;DHT22;12035;49.978;8.298;2023-12-07T07:28:40;4.10;82.10
23713;DHT22;12035;49.978;8.298;2023-12-07T07:33:37;4.20;82.30
23713;DHT22;12035;49.978;8.298;2023-12-07T07:38:34;4.20;82.50
23713;DHT22;12035;49.978;8.298;2023-12-07T07:43:31;4.30;82.50
23713;DHT22;12035;49.978;8.298;2023-12-07T07:48:31;4.30;82.50
23713;DHT22;12035;49.978;8.298;2023-12-07T07:53:28;4.30;82.30
23713;DHT22;12035;49.978;8.298;2023-12-07T07:58:25;4.30;82.00
23713;DHT22;12035;49.978;8.298;2023-12-07T08:03:22;4.30;82.00
23713;DHT22;12035;49.978;8.298;2023-12-07T08:08:21;4.20;81.90
23713;DHT22;12035;49.978;8.298;2023-12-07T08:13:18;4.30;82.10
23713;DHT22;12035;49.978;8.298;2023-12-07T08:18:15;4.20;82.10
23713;DHT22;12035;49.978;8.298;2023-12-07T08:23:20;4.20;82.30
23713;DHT22;12035;49.978;8.298;2023-12-07T08:28:17;4.20;83.00
23713;DHT22;12035;49.978;8.298;2023-12-07T08:33:14;4.10;82.40
23713;DHT22;12035;49.978;8.298;2023-12-07T08:38:11;4.10;82.80
23713;DHT22;12035;49.978;8.298;2023-12-07T08:43:10;4.10;83.30
23713;DHT22;12035;49.978;8.298;2023-12-07T08:48:07;4.10;83.60
23713;DHT22;12035;49.978;8.298;2023-12-07T08:53:04;4.20;83.60
23713;DHT22;12035;49.978;8.298;2023-12-07T08:58:01;4.20;83.60
23713;DHT22;12035;49.978;8.298;2023-12-07T09:03:01;4.30;83.80
23713;DHT22;12035;49.978;8.298;2023-12-07T09:07:58;4.30;83.90
23713;DHT22;12035;49.978;8.298;2023-12-07T09:12:55;4.40;83.90
23713;DHT22;12035;49.978;8.298;2023-12-07T09:17:52;4.50;83.90
23713;DHT22;12035;49.978;8.298;2023-12-07T09:22:50;4.50;84.00
23713;DHT22;12035;49.978;8.298;2023-12-07T09:27:47;4.60;84.10
23713;DHT22;12035;49.978;8.298;2023-12-07T09:32:44;4.70;84.00
23713;DHT22;12035;49.978;8.298;2023-12-07T09:37:41;4.80;84.10
23713;DHT22;12035;49.978;8.298;2023-12-07T09:42:40;4.80;83.90
23713;DHT22;12035;49.978;8.298;2023-12-07T09:47:40;4.80;83.90
23713;DHT22;12035;49.978;8.298;2023-12-07T09:52:37;4.90;83.70
23713;DHT22;12035;49.978;8.298;2023-12-07T09:57:35;4.90;83.60
23713;DHT22;12035;49.978;8.298;2023-12-07T10:02:37;4.90;83.50
23713;DHT22;12035;49.978;8.298;2023-12-07T10:07:36;4.90;83.60
23713;DHT22;12035;49.978;8.298;2023-12-07T10:12:35;5.00;84.60
23713;DHT22;12035;49.978;8.298;2023-12-07T10:17:48;5.00;83.90
23713;DHT22;12035;49.978;8.298;2023-12-07T10:22:46;5.00;83.90
23713;DHT22;12035;49.978;8.298;2023-12-07T10:27:43;5.00;83.90
23713;DHT22;12035;49.978;8.298;2023-12-07T10:32:40;5.10;83.80
23713;DHT22;12035;49.978;8.298;2023-12-07T10:37:39;5.10;83.70
23713;DHT22;12035;49.978;8.298;2023-12-07T10:42:36;5.10;83.60
23713;DHT22;12035;49.978;8.298;2023-12-07T10:47:38;5.20;83.50
23713;DHT22;12035;49.978;8.298;2023-12-07T10:52:35;5.20;83.60
23713;DHT22;12035;49.978;8.298;2023-12-07T10:57:34;5.20;83.80
23713;DHT22;12035;49.978;8.298;2023-12-07T11:02:34;5.20;83.80
23713;DHT22;12035;49.978;8.298;2023-12-07T11:07:38;5.20;83.60
23713;DHT22;12035;49.978;8.298;2023-12-07T11:12:48;5.20;83.50
23713;DHT22;12035;49.978;8.298;2023-12-07T11:17:51;5.20;83.70
23713;DHT22;12035;49.978;8.298;2023-12-07T11:22:50;5.20;84.00
23713;DHT22;12035;49.978;8.298;2023-12-07T11:28:00;5.30;84.10
23713;DHT22;12035;49.978;8.298;2023-12-07T11:32:57;5.30;84.30
23713;DHT22;12035;49.978;8.298;2023-12-07T11:38:05;5.40;84.10
23713;DHT22;12035;49.978;8.298;2023-12-07T11:43:05;5.40;83.90
23713;DHT22;12035;49.978;8.298;2023-12-07T11:48:09;5.50;84.10
23713;DHT22;12035;49.978;8.298;2023-12-07T11:53:07;5.50;84.20
23713;DHT22;12035;49.978;8.298;2023-12-07T11:58:05;5.50;84.10
23713;DHT22;12035;49.978;8.298;2023-12-07T12:03:02;5.50;84.00
23713;DHT22;12035;49.978;8.298;2023-12-07T12:07:59;5.50;84.00
23713;DHT22;12035;49.978;8.298;2023-12-07T12:12:56;5.50;84.10
23713;DHT22;12035;49.978;8.298;2023-12-07T12:17:55;5.40;84.20
23713;DHT22;12035;49.978;8.298;2023-12-07T12:22:53;5.40;84.40
23713;DHT22;12035;49.978;8.298;2023-12-07T12:27:51;5.40;84.50
23713;DHT22;12035;49.978;8.298;2023-12-07T12:32:49;5.40;84.40
23713;DHT22;12035;49.978;8.298;2023-12-07T12:37:48;5.50;84.40
23713;DHT22;12035;49.978;8.298;2023-12-07T12:42:47;5.40;84.40
23713;DHT22;12035;49.978;8.298;2023-12-07T12:47:45;5.40;84.40
23713;DHT22;12035;49.978;8.298;2023-12-07T12:52:44;5.40;84.60
23713;DHT22;12035;49.978;8.298;2023-12-07T12:57:42;5.40;84.60
23713;DHT22;12035;49.978;8.298;2023-12-07T13:02:39;5.40;84.60
23713;DHT22;12035;49.978;8.298;2023-12-07T13:07:38;5.30;84.60
23713;DHT22;12035;49.978;8.298;2023-12-07T13:12:36;5.30;85.00
23713;DHT22;12035;49.978;8.298;2023-12-07T13:17:35;5.40;85.10
23713;DHT22;12035;49.978;8.298;2023-12-07T13:22:32;5.40;85.20
23713;DHT22;12035;49.978;8.298;2023-12-07T13:27:29;5.50;85.40
23713;DHT22;12035;49.978;8.298;2023-12-07T13:32:26;5.50;85.30
23713;DHT22;12035;49.978;8.298;2023-12-07T13:37:24;5.50;84.90
23713;DHT22;12035;49.978;8.298;2023-12-07T13:42:21;5.50;84.60
23713;DHT22;12035;49.978;8.298;2023-12-07T13:47:21;5.40;84.70
23713;DHT22;12035;49.978;8.298;2023-12-07T13:52:21;5.40;84.90
23713;DHT22;12035;49.978;8.298;2023-12-07T13:57:20;5.30;85.00
23713;DHT22;12035;49.978;8.298;2023-12-07T14:02:19;5.20;85.10
23713;DHT22;12035;49.978;8.298;2023-12-07T14:07:17;5.20;85.50
23713;DHT22;12035;49.978;8.298;2023-12-07T14:12:16;5.20;85.90
23713;DHT22;12035;49.978;8.298;2023-12-07T14:17:16;5.20;85.90
23713;DHT22;12035;49.978;8.298;2023-12-07T14:22:13;5.30;86.00
23713;DHT22;12035;49.978;8.298;2023-12-07T14:27:10;5.30;85.90
23713;DHT22;12035;49.978;8.298;2023-12-07T14:32:07;5.30;85.70
23713;DHT22;12035;49.978;8.298;2023-12-07T14:37:06;5.40;85.80
23713;DHT22;12035;49.978;8.298;2023-12-07T14:42:04;5.40;85.60
23713;DHT22;12035;49.978;8.298;2023-12-07T14:47:02;5.40;85.20
23713;DHT22;12035;49.978;8.298;2023-12-07T14:51:59;5.40;85.10
23713;DHT22;12035;49.978;8.298;2023-12-07T14:56:57;5.30;85.20
23713;DHT22;12035;49.978;8.298;2023-12-07T15:01:54;5.20;85.40
23713;DHT22;12035;49.978;8.298;2023-12-07T15:06:51;5.20;85.60
23713;DHT22;12035;49.978;8.298;2023-12-07T15:11:49;5.10;85.90
23713;DHT22;12035;49.978;8.298;2023-12-07T15:16:47;5.00;86.20
23713;DHT22;12035;49.978;8.298;2023-12-07T15:21:44;4.90;86.50
23713;DHT22;12035;49.978;8.298;2023-12-07T15:26:42;4.90;86.80
23713;DHT22;12035;49.978;8.298;2023-12-07T15:31:40;4.80;87.10
23713;DHT22;12035;49.978;8.298;2023-12-07T15:36:38;4.70;87.40
23713;DHT22;12035;49.978;8.298;2023-12-07T15:41:35;4.70;88.30
23713;DHT22;12035;49.978;8.298;2023-12-07T15:46:32;4.70;87.90
23713;DHT22;12035;49.978;8.298;2023-12-07T15:51:29;4.70;88.10
23713;DHT22;12035;49.978;8.298;2023-12-07T15:56:28;4.80;88.40
23713;DHT22;12035;49.978;8.298;2023-12-07T16:01:25;4.80;88.40
23713;DHT22;12035;49.978;8.298;2023-12-07T16:06:22;4.90;88.40
23713;DHT22;12035;49.978;8.298;2023-12-07T16:11:19;4.90;88.50
23713;DHT22;12035;49.978;8.298;2023-12-07T16:16:17;4.90;88.60
23713;DHT22;12035;49.978;8.298;2023-12-07T16:21:14;4.90;88.70
23713;DHT22;12035;49.978;8.298;2023-12-07T16:26:13;4.90;88.60
23713;DHT22;12035;49.978;8.298;2023-12-07T16:31:10;4.90;88.70
23713;DHT22;12035;49.978;8.298;2023-12-07T16:36:13;4.90;88.70
23713;DHT22;12035;49.978;8.298;2023-12-07T16:41:11;4.90;88.70
23713;DHT22;12035;49.978;8.298;2023-12-07T16:46:09;4.90;88.70
23713;DHT22;12035;49.978;8.298;2023-12-07T16:51:07;4.90;88.70
23713;DHT22;12035;49.978;8.298;2023-12-07T16:56:07;4.80;88.60
23713;DHT22;12035;49.978;8.298;2023-12-07T17:01:04;4.80;88.40
23713;DHT22;12035;49.978;8.298;2023-12-07T17:06:02;4.80;88.20
23713;DHT22;12035;49.978;8.298;2023-12-07T17:11:01;4.70;87.90
23713;DHT22;12035;49.978;8.298;2023-12-07T17:15:58;4.70;87.80
23713;DHT22;12035;49.978;8.298;2023-12-07T17:20:55;4.70;87.70
23713;DHT22;12035;49.978;8.298;2023-12-07T17:25:53;4.60;87.50
23713;DHT22;12035;49.978;8.298;2023-12-07T17:30:51;4.50;87.40
23713;DHT22;12035;49.978;8.298;2023-12-07T17:35:49;4.40;87.40
23713;DHT22;12035;49.978;8.298;2023-12-07T17:40:47;4.40;87.40
23713;DHT22;12035;49.978;8.298;2023-12-07T17:45:44;4.30;87.60
23713;DHT22;12035;49.978;8.298;2023-12-07T17:50:43;4.30;87.70
23713;DHT22;12035;49.978;8.298;2023-12-07T17:55:40;4.20;87.80
23713;DHT22;12035;49.978;8.298;2023-12-07T18:00:37;4.20;87.80
23713;DHT22;12035;49.978;8.298;2023-12-07T18:05:34;4.20;87.80
23713;DHT22;12035;49.978;8.298;2023-12-07T18:10:32;4.10;87.80
23713;DHT22;12035;49.978;8.298;2023-12-07T18:15:29;4.10;88.60
23713;DHT22;12035;49.978;8.298;2023-12-07T18:20:26;4.10;87.90
23713;DHT22;12035;49.978;8.298;2023-12-07T18:25:23;4.00;87.90
23713;DHT22;12035;49.978;8.298;2023-12-07T18:30:22;4.00;88.00
23713;DHT22;12035;49.978;8.298;2023-12-07T18:35:19;4.00;88.00
23713;DHT22;12035;49.978;8.298;2023-12-07T18:40:16;3.90;87.90
23713;DHT22;12035;49.978;8.298;2023-12-07T18:45:13;3.90;87.90
23713;DHT22;12035;49.978;8.298;2023-12-07T18:50:11;3.90;88.00
23713;DHT22;12035;49.978;8.298;2023-12-07T18:55:08;3.80;88.00
23713;DHT22;12035;49.978;8.298;2023-12-07T19:00:07;3.80;88.00
23713;DHT22;12035;49.978;8.298;2023-12-07T19:05:06;3.80;88.20
23713;DHT22;12035;49.978;8.298;2023-12-07T19:10:06;3.70;88.00
23713;DHT22;12035;49.978;8.298;2023-12-07T19:15:05;3.70;88.10
23713;DHT22;12035;49.978;8.298;2023-12-07T19:20:04;3.70;88.20
23713;DHT22;12035;49.978;8.298;2023-12-07T19:25:03;3.70;88.20
23713;DHT22;12035;49.978;8.298;2023-12-07T19:30:02;3.70;88.20
23713;DHT22;12035;49.978;8.298;2023-12-07T19:35:02;3.70;88.20
23713;DHT22;12035;49.978;8.298;2023-12-07T19:40:06;3.70;88.30
23713;DHT22;12035;49.978;8.298;2023-12-07T19:45:07;3.70;88.30
23713;DHT22;12035;49.978;8.298;2023-12-07T19:50:10;3.70;88.30
23713;DHT22;12035;49.978;8.298;2023-12-07T19:55:09;3.70;88.40
23713;DHT22;12035;49.978;8.298;2023-12-07T20:00:07;3.60;88.30
23713;DHT22;12035;49.978;8.298;2023-12-07T20:05:06;3.60;88.60
23713;DHT22;12035;49.978;8.298;2023-12-07T20:10:05;3.60;88.60
23713;DHT22;12035;49.978;8.298;2023-12-07T20:15:05;3.60;88.70
23713;DHT22;12035;49.978;8.298;2023-12-07T20:20:06;3.60;88.70
23713;DHT22;12035;49.978;8.298;2023-12-07T20:25:04;3.60;88.70
23713;DHT22;12035;49.978;8.298;2023-12-07T20:30:03;3.50;88.60
23713;DHT22;12035;49.978;8.298;2023-12-07T20:35:01;3.50;88.60
23713;DHT22;12035;49.978;8.298;2023-12-07T20:39:58;3.50;88.60
23713;DHT22;12035;49.978;8.298;2023-12-07T20:44:58;3.50;88.60
23713;DHT22;12035;49.978;8.298;2023-12-07T20:49:56;3.50;88.60
23713;DHT22;12035;49.978;8.298;2023-12-07T20:54:53;3.50;88.70
23713;DHT22;12035;49.978;8.298;2023-12-07T20:59:50;3.60;88.70
23713;DHT22;12035;49.978;8.298;2023-12-07T21:04:48;3.60;88.60
23713;DHT22;12035;49.978;8.298;2023-12-07T21:09:46;3.50;88.50
23713;DHT22;12035;49.978;8.298;2023-12-07T21:14:43;3.60;89.30
23713;DHT22;12035;49.978;8.298;2023-12-07T21:19:40;3.60;88.50
23713;DHT22;12035;49.978;8.298;2023-12-07T21:24:37;3.60;88.40
23713;DHT22;12035;49.978;8.298;2023-12-07T21:29:35;3.70;88.40
23713;DHT22;12035;49.978;8.298;2023-12-07T21:34:33;3.70;88.40
23713;DHT22;12035;49.978;8.298;2023-12-07T21:39:30;3.60;88.20
23713;DHT22;12035;49.978;8.298;2023-12-07T21:44:27;3.70;88.30
23713;DHT22;12035;49.978;8.298;2023-12-07T21:49:25;3.70;88.20
23713;DHT22;12035;49.978;8.298;2023-12-07T21:54:22;3.70;88.20
23713;DHT22;12035;49.978;8.298;2023-12-07T21:59:19;3.70;88.00
23713;DHT22;12035;49.978;8.298;2023-12-07T22:04:16;3.70;88.00
23713;DHT22;12035;49.978;8.298;2023-12-07T22:09:14;3.70;87.90
23713;DHT22;12035;49.978;8.298;2023-12-07T22:14:11;3.70;87.80
23713;DHT22;12035;49.978;8.298;2023-12-07T22:19:08;3.80;87.80
23713;DHT22;12035;49.978;8.298;2023-12-07T22:24:06;3.80;87.80
23713;DHT22;12035;49.978;8.298;2023-12-07T22:29:05;3.80;87.70
23713;DHT22;12035;49.978;8.298;2023-12-07T22:34:02;3.80;87.60
23713;DHT22;12035;49.978;8.298;2023-12-07T22:38:59;3.70;87.50
23713;DHT22;12035;49.978;8.298;2023-12-07T22:43:56;3.80;87.50
23713;DHT22;12035;49.978;8.298;2023-12-07T22:48:54;3.80;87.40
23713;DHT22;12035;49.978;8.298;2023-12-07T22:53:51;3.70;87.30
23713;DHT22;12035;49.978;8.298;2023-12-07T22:58:48;3.80;87.30
23713;DHT22;12035;49.978;8.298;2023-12-07T23:03:45;3.80;87.20
23713;DHT22;12035;49.978;8.298;2023-12-07T23:08:43;3.90;87.20
23713;DHT22;12035;49.978;8.298;2023-12-07T23:13:40;3.90;87.20
23713;DHT22;12035;49.978;8.298;2023-12-07T23:18:37;3.90;87.10
23713;DHT22;12035;49.978;8.298;2023-12-07T23:23:34;3.90;87.00
23713;DHT22;12035;49.978;8.298;2023-12-07T23:28:33;3.90;87.00
23713;DHT22;12035;49.978;8.298;2023-12-07T23:33:30;3.90;86.90
23713;DHT22;12035;49.978;8.298;2023-12-07T23:38:26;3.90;86.80
23713;DHT22;12035;49.978;8.298;2023-12-07T23:43:23;3.90;86.60
23713;DHT22;12035;49.978;8.298;2023-12-07T23:48:22;3.90;86.70
23713;DHT22;12035;49.978;8.298;2023-12-07T23:53:19;3.90;86.70
23713;DHT22;12035;49.978;8.298;2023-12-07T23:58:16;4.00;86.80
